createdAt,value
2023-01-18T00:01:07.567Z,6.20
2023-01-18T00:03:15.162Z,6.07
2023-01-18T00:05:16.882Z,5.70
2023-01-18T00:07:18.500Z,6.17
2023-01-18T00:09:20.353Z,6.17
2023-01-18T00:11:22.050Z,6.23
2023-01-18T00:13:23.530Z,6.57
2023-01-18T00:15:25.327Z,5.73
2023-01-18T00:17:26.916Z,5.87
2023-01-18T00:19:28.505Z,5.57
2023-01-18T00:21:30.175Z,5.63
2023-01-18T00:23:31.976Z,5.43
2023-01-18T00:25:35.470Z,6.40
2023-01-18T00:27:38.547Z,6.23
2023-01-18T00:29:40.092Z,5.97
2023-01-18T00:31:41.959Z,6.27
2023-01-18T00:33:45.772Z,6.20
2023-01-18T00:36:01.408Z,5.60
2023-01-18T00:38:02.938Z,5.73
2023-01-18T00:40:09.911Z,5.40
2023-01-18T00:42:30.191Z,5.33
2023-01-18T00:44:31.934Z,5.60
2023-01-18T00:46:33.726Z,5.40
2023-01-18T00:48:36.061Z,5.80
2023-01-18T00:50:38.292Z,5.93
2023-01-18T00:52:46.466Z,5.80
2023-01-18T00:54:48.446Z,5.60
2023-01-18T00:56:50.065Z,5.17
2023-01-18T00:58:54.033Z,5.40
2023-01-18T01:00:55.774Z,5.20
2023-01-18T01:03:03.765Z,5.30
2023-01-18T01:05:45.904Z,5.27
2023-01-18T01:07:49.255Z,4.57
2023-01-18T01:09:51.129Z,4.70
2023-01-18T01:12:12.465Z,4.53
2023-01-18T01:14:32.741Z,4.27
2023-01-18T01:16:53.240Z,4.57
2023-01-18T01:19:14.460Z,4.30
2023-01-18T01:21:34.813Z,3.97
2023-01-18T01:23:56.864Z,4.00
2023-01-18T01:26:13.798Z,4.13
2023-01-18T01:28:15.393Z,4.07
2023-01-18T01:30:16.914Z,4.13
2023-01-18T01:32:18.547Z,4.10
2023-01-18T01:34:20.286Z,3.90
2023-01-18T01:36:30.347Z,3.93
2023-01-18T01:38:32.062Z,3.80
2023-01-18T01:40:34.324Z,4.10
2023-01-18T01:42:36.006Z,4.27
2023-01-18T01:44:43.760Z,4.00
2023-01-18T01:47:00.689Z,3.80
2023-01-18T01:49:18.967Z,4.43
2023-01-18T01:51:20.653Z,3.47
2023-01-18T01:53:29.609Z,3.70
2023-01-18T01:55:35.345Z,4.03
2023-01-18T01:57:43.410Z,3.50
2023-01-18T01:59:56.656Z,3.57
2023-01-18T02:02:01.606Z,3.83
2023-01-18T02:04:04.119Z,4.03
2023-01-18T02:06:19.791Z,3.73
2023-01-18T02:08:24.576Z,3.53
2023-01-18T02:10:26.861Z,4.00
2023-01-18T02:12:29.830Z,3.60
2023-01-18T02:14:32.129Z,3.67
2023-01-18T02:16:41.002Z,4.00
2023-01-18T02:18:52.605Z,3.20
2023-01-18T02:21:14.113Z,3.77
2023-01-18T02:23:27.845Z,3.30
2023-01-18T02:25:54.977Z,3.80
2023-01-18T02:28:23.444Z,3.63
2023-01-18T02:30:36.309Z,3.90
2023-01-18T02:33:25.853Z,3.30
2023-01-18T02:35:39.994Z,3.40
2023-01-18T02:37:49.467Z,3.70
2023-01-18T02:40:08.688Z,3.40
2023-01-18T02:42:50.291Z,3.50
2023-01-18T02:45:11.263Z,3.87
2023-01-18T02:47:13.008Z,3.40
2023-01-18T02:49:36.068Z,3.30
2023-01-18T02:51:38.274Z,3.53
2023-01-18T02:53:45.847Z,3.33
2023-01-18T02:56:03.727Z,3.90
2023-01-18T02:58:19.233Z,3.53
2023-01-18T03:00:23.515Z,3.77
2023-01-18T03:02:29.304Z,3.40
2023-01-18T03:04:41.194Z,3.30
2023-01-18T03:06:48.627Z,3.40
2023-01-18T03:08:53.512Z,3.20
2023-01-18T03:11:04.761Z,3.30
2023-01-18T03:13:18.237Z,3.30
2023-01-18T03:15:38.644Z,3.47
2023-01-18T03:17:46.923Z,3.67
2023-01-18T03:20:13.003Z,3.40
2023-01-18T03:22:15.290Z,3.30
2023-01-18T03:24:19.595Z,3.20
2023-01-18T03:26:21.934Z,3.43
2023-01-18T03:29:08.320Z,3.17
2023-01-18T03:31:32.692Z,3.30
2023-01-18T03:33:50.867Z,2.90
2023-01-18T03:35:55.555Z,3.27
2023-01-18T03:38:02.234Z,3.33
2023-01-18T03:40:08.770Z,3.10
2023-01-18T03:42:19.587Z,3.30
2023-01-18T03:44:37.382Z,3.03
2023-01-18T03:46:40.549Z,3.40
2023-01-18T03:48:42.119Z,3.50
2023-01-18T03:50:56.216Z,3.20
2023-01-18T03:53:03.582Z,3.27
2023-01-18T03:55:38.502Z,3.10
2023-01-18T03:57:59.260Z,3.10
2023-01-18T04:00:02.659Z,3.00
2023-01-18T04:02:17.128Z,3.10
2023-01-18T04:04:18.581Z,3.23
2023-01-18T04:06:31.236Z,3.10
2023-01-18T04:08:32.929Z,3.20
2023-01-18T04:10:34.517Z,3.07
2023-01-18T04:12:38.039Z,3.10
2023-01-18T04:14:39.552Z,3.17
2023-01-18T04:16:41.140Z,2.97
2023-01-18T04:18:42.809Z,3.37
2023-01-18T04:20:44.307Z,4.03
2023-01-18T04:22:51.785Z,3.00
2023-01-18T04:24:53.334Z,3.33
2023-01-18T04:26:57.226Z,3.43
2023-01-18T04:28:58.849Z,3.20
2023-01-18T04:31:09.878Z,3.03
2023-01-18T04:33:16.407Z,3.37
2023-01-18T04:35:18.021Z,3.53
2023-01-18T04:37:19.553Z,3.50
2023-01-18T04:39:21.878Z,3.70
2023-01-18T04:41:23.958Z,3.30
2023-01-18T04:43:25.518Z,3.73
2023-01-18T04:45:30.029Z,3.60
2023-01-18T04:47:31.530Z,3.40
2023-01-18T04:49:33.115Z,3.35
2023-01-18T04:51:35.126Z,3.53
2023-01-18T04:53:36.653Z,3.47
2023-01-18T04:55:38.454Z,3.50
2023-01-18T04:57:40.175Z,3.60
2023-01-18T04:59:45.992Z,3.67
2023-01-18T05:01:47.667Z,3.60
2023-01-18T05:03:55.127Z,3.77
2023-01-18T05:05:56.694Z,3.90
2023-01-18T05:08:01.210Z,3.77
2023-01-18T05:10:03.801Z,4.00
2023-01-18T05:12:05.596Z,3.80
2023-01-18T05:14:07.302Z,3.93
2023-01-18T05:16:14.574Z,3.60
2023-01-18T05:18:16.176Z,4.00
2023-01-18T05:20:17.833Z,4.05
2023-01-18T05:22:19.424Z,4.03
2023-01-18T05:24:21.159Z,3.93
2023-01-18T05:26:24.053Z,3.67
2023-01-18T05:28:27.458Z,4.07
2023-01-18T05:30:29.357Z,3.87
2023-01-18T05:32:30.995Z,3.97
2023-01-18T05:34:34.839Z,3.90
2023-01-18T05:36:39.789Z,4.40
2023-01-18T05:38:41.413Z,3.47
2023-01-18T05:40:50.029Z,3.80
2023-01-18T05:42:51.674Z,4.07
2023-01-18T05:44:53.325Z,3.80
2023-01-18T05:46:54.918Z,3.90
2023-01-18T05:48:58.249Z,4.13
2023-01-18T05:51:08.800Z,3.97
2023-01-18T05:53:13.973Z,4.30
2023-01-18T05:55:21.549Z,4.00
2023-01-18T05:57:23.319Z,3.60
2023-01-18T05:59:35.338Z,4.30
2023-01-18T06:01:38.009Z,4.43
2023-01-18T06:03:40.842Z,4.83
2023-01-18T06:05:42.593Z,4.57
2023-01-18T06:07:44.399Z,4.50
2023-01-18T06:09:45.999Z,4.07
2023-01-18T06:11:50.026Z,4.80
2023-01-18T06:13:54.422Z,4.20
2023-01-18T06:15:57.991Z,4.50
2023-01-18T06:18:00.071Z,4.47
2023-01-18T06:20:02.158Z,4.47
2023-01-18T06:22:03.735Z,4.50
2023-01-18T06:24:05.562Z,4.55
2023-01-18T06:26:07.256Z,4.27
2023-01-18T06:28:08.805Z,4.77
2023-01-18T06:30:11.299Z,4.73
2023-01-18T06:32:12.900Z,4.73
2023-01-18T06:34:14.431Z,5.00
2023-01-18T06:36:16.068Z,4.60
2023-01-18T06:38:18.992Z,4.30
2023-01-18T06:40:20.726Z,4.13
2023-01-18T06:42:23.373Z,4.13
2023-01-18T06:44:24.965Z,4.30
2023-01-18T06:46:26.506Z,4.77
2023-01-18T06:48:29.697Z,4.47
2023-01-18T06:50:31.548Z,3.93
2023-01-18T06:52:33.170Z,4.30
2023-01-18T06:54:35.946Z,4.53
2023-01-18T06:56:37.621Z,4.87
2023-01-18T06:58:39.227Z,5.07
2023-01-18T07:00:40.780Z,5.30
2023-01-18T07:02:44.295Z,5.13
2023-01-18T07:04:48.553Z,5.23
2023-01-18T07:06:50.110Z,5.53
2023-01-18T07:08:52.089Z,4.85
2023-01-18T07:10:55.205Z,4.70
2023-01-18T07:12:57.361Z,5.10
2023-01-18T07:15:20.872Z,4.43
2023-01-18T07:17:23.439Z,4.47
2023-01-18T07:19:24.923Z,4.27
2023-01-18T07:21:29.859Z,4.50
2023-01-18T07:23:31.659Z,4.30
2023-01-18T07:25:33.391Z,4.20
2023-01-18T07:27:35.160Z,3.97
2023-01-18T07:29:36.708Z,4.30
2023-01-18T07:31:38.793Z,3.50
2023-01-18T07:33:40.437Z,4.00
2023-01-18T07:35:44.289Z,4.23
2023-01-18T07:37:50.364Z,4.77
2023-01-18T07:39:53.765Z,4.37
2023-01-18T07:41:55.572Z,4.13
2023-01-18T07:44:03.740Z,4.47
2023-01-18T07:46:11.381Z,4.17
2023-01-18T07:48:17.003Z,4.33
2023-01-18T07:50:18.908Z,4.33
2023-01-18T07:52:20.556Z,4.27
2023-01-18T07:54:22.184Z,4.53
2023-01-18T07:56:26.199Z,4.40
2023-01-18T07:58:29.303Z,4.07
2023-01-18T08:00:30.966Z,4.00
2023-01-18T08:02:33.957Z,3.83
2023-01-18T08:04:35.554Z,4.87
2023-01-18T08:06:37.465Z,4.07
2023-01-18T08:08:42.302Z,4.20
2023-01-18T08:10:44.912Z,4.60
2023-01-18T08:12:46.724Z,4.30
2023-01-18T08:14:48.597Z,4.53
2023-01-18T08:16:52.582Z,4.33
2023-01-18T08:18:54.390Z,4.40
2023-01-18T08:20:56.389Z,4.73
2023-01-18T08:22:59.952Z,5.13
2023-01-18T08:25:02.175Z,5.27
2023-01-18T08:27:03.916Z,5.77
2023-01-18T08:29:06.317Z,6.13
2023-01-18T08:31:14.977Z,6.37
2023-01-18T08:33:17.000Z,6.03
2023-01-18T08:35:23.696Z,6.33
2023-01-18T08:37:25.656Z,5.93
2023-01-18T08:39:31.433Z,5.93
2023-01-18T08:41:36.238Z,6.60
2023-01-18T08:43:37.893Z,5.53
2023-01-18T08:45:39.491Z,5.60
2023-01-18T08:47:41.455Z,5.33
2023-01-18T08:49:43.062Z,5.37
2023-01-18T08:51:44.861Z,5.40
2023-01-18T08:53:49.695Z,5.50
2023-01-18T08:55:51.233Z,5.00
2023-01-18T08:57:57.633Z,5.07
2023-01-18T08:59:59.236Z,5.33
2023-01-18T09:02:01.019Z,5.67
2023-01-18T09:04:02.632Z,5.30
2023-01-18T09:06:13.090Z,5.60
2023-01-18T09:08:15.446Z,6.00
2023-01-18T09:10:17.319Z,5.20
2023-01-18T09:12:19.343Z,5.17
2023-01-18T09:14:20.920Z,5.20
2023-01-18T09:16:23.055Z,5.20
2023-01-18T09:18:26.139Z,4.90
2023-01-18T09:20:28.310Z,5.30
2023-01-18T09:22:30.325Z,4.60
2023-01-18T09:24:32.129Z,4.87
2023-01-18T09:26:34.047Z,4.53
2023-01-18T09:28:36.321Z,5.00
2023-01-18T09:30:37.872Z,5.37
2023-01-18T09:32:41.742Z,4.73
2023-01-18T09:34:44.066Z,4.97
2023-01-18T09:36:46.749Z,5.10
2023-01-18T09:38:56.134Z,5.53
2023-01-18T09:40:58.851Z,5.28
2023-01-18T09:43:00.752Z,5.75
2023-01-18T09:45:03.869Z,5.70
2023-01-18T09:47:12.655Z,5.23
2023-01-18T09:49:28.929Z,5.27
2023-01-18T09:51:57.358Z,5.03
2023-01-18T09:54:28.902Z,5.13
2023-01-18T09:56:47.517Z,5.40
2023-01-18T09:59:13.344Z,6.00
2023-01-18T10:01:22.347Z,5.87
2023-01-18T10:03:42.105Z,6.63
2023-01-18T10:06:09.900Z,5.90
2023-01-18T10:08:23.237Z,6.73
2023-01-18T10:10:27.047Z,5.83
2023-01-18T10:12:31.631Z,6.78
2023-01-18T10:14:49.153Z,6.05
2023-01-18T10:17:23.944Z,7.20
2023-01-18T10:19:28.901Z,7.00
2023-01-18T10:21:55.030Z,7.00
2023-01-18T10:24:19.274Z,7.78
2023-01-18T10:26:29.570Z,8.25
2023-01-18T10:28:50.608Z,7.90
2023-01-18T10:31:15.160Z,8.63
2023-01-18T10:33:25.268Z,8.43
2023-01-18T10:35:33.484Z,8.90
2023-01-18T10:37:46.848Z,8.35
2023-01-18T10:39:53.485Z,9.20
2023-01-18T10:42:00.826Z,9.38
2023-01-18T10:44:02.513Z,9.95
2023-01-18T10:46:15.063Z,9.00
2023-01-18T10:48:25.881Z,8.15
2023-01-18T10:50:44.080Z,9.40
2023-01-18T10:52:46.088Z,8.27
2023-01-18T10:54:53.266Z,7.50
2023-01-18T10:57:03.811Z,6.88
2023-01-18T10:59:05.736Z,7.50
2023-01-18T11:01:14.228Z,6.88
2023-01-18T11:03:16.193Z,6.20
2023-01-18T11:05:30.196Z,6.28
2023-01-18T11:07:32.107Z,7.20
2023-01-18T11:09:39.744Z,5.88
2023-01-18T11:12:00.221Z,5.32
2023-01-18T11:14:03.728Z,5.03
2023-01-18T11:16:13.797Z,4.72
2023-01-18T11:18:17.631Z,4.32
2023-01-18T11:20:29.615Z,5.18
2023-01-18T11:22:33.796Z,3.80
2023-01-18T11:24:35.681Z,4.07
2023-01-18T11:26:53.331Z,4.43
2023-01-18T11:28:58.025Z,4.28
2023-01-18T11:31:12.960Z,3.88
2023-01-18T11:33:21.625Z,3.92
2023-01-18T11:35:32.980Z,3.83
2023-01-18T11:37:37.306Z,4.25
2023-01-18T11:39:38.950Z,4.13
2023-01-18T11:41:43.083Z,4.20
2023-01-18T11:44:00.273Z,4.50
2023-01-18T11:46:07.610Z,4.28
2023-01-18T11:48:48.387Z,4.72
2023-01-18T11:51:01.093Z,4.55
2023-01-18T11:53:21.641Z,4.15
2023-01-18T11:55:35.922Z,3.97
2023-01-18T11:57:40.290Z,4.00
2023-01-18T11:59:45.627Z,3.92
2023-01-18T12:02:25.152Z,3.67
2023-01-18T12:04:36.243Z,4.15
2023-01-18T12:07:15.054Z,4.20
2023-01-18T12:09:45.503Z,4.22
2023-01-18T12:12:18.401Z,3.85
2023-01-18T12:14:30.096Z,3.72
2023-01-18T12:17:14.356Z,3.97
2023-01-18T12:19:19.179Z,3.97
2023-01-18T12:21:44.170Z,4.50
2023-01-18T12:24:16.221Z,4.03
2023-01-18T12:26:24.265Z,3.60
2023-01-18T12:28:56.106Z,3.80
2023-01-18T12:31:09.897Z,3.58
2023-01-18T12:33:16.212Z,3.67
2023-01-18T12:35:47.936Z,4.05
2023-01-18T12:38:08.199Z,3.85
2023-01-18T12:40:12.785Z,4.18
2023-01-18T12:42:32.095Z,4.15
2023-01-18T12:44:47.203Z,3.97
2023-01-18T12:46:58.732Z,3.90
2023-01-18T12:49:13.749Z,4.28
2023-01-18T12:51:18.618Z,4.50
2023-01-18T12:53:33.723Z,3.70
2023-01-18T12:55:42.322Z,3.65
2023-01-18T12:57:46.540Z,3.88
2023-01-18T12:59:57.841Z,3.90
2023-01-18T13:02:24.660Z,3.70
2023-01-18T13:04:33.489Z,4.10
2023-01-18T13:06:39.642Z,3.88
2023-01-18T13:08:47.466Z,3.42
2023-01-18T13:10:49.628Z,3.88
2023-01-18T13:12:53.369Z,3.83
2023-01-18T13:15:05.399Z,3.20
2023-01-18T13:17:13.640Z,3.30
2023-01-18T13:19:24.822Z,2.70
2023-01-18T13:21:46.737Z,3.42
2023-01-18T13:24:00.423Z,3.05
2023-01-18T13:26:19.869Z,2.78
2023-01-18T13:28:28.827Z,3.47
2023-01-18T13:31:02.257Z,3.70
2023-01-18T13:33:13.807Z,3.90
2023-01-18T13:35:25.843Z,3.50
2023-01-18T13:37:48.548Z,3.50
2023-01-18T13:39:52.700Z,2.72
2023-01-18T13:42:16.032Z,2.97
2023-01-18T13:44:32.625Z,2.78
2023-01-18T13:46:39.183Z,2.80
2023-01-18T13:48:52.732Z,2.83
2023-01-18T13:50:54.449Z,2.92
2023-01-18T13:53:14.247Z,3.03
2023-01-18T13:55:31.315Z,3.00
2023-01-18T13:57:34.829Z,3.08
2023-01-18T13:59:46.542Z,3.35
2023-01-18T14:01:49.692Z,3.33
2023-01-18T14:03:54.172Z,3.20
2023-01-18T14:06:03.368Z,2.90
2023-01-18T14:08:17.799Z,3.10
2023-01-18T14:10:38.000Z,3.35
2023-01-18T14:12:49.289Z,3.35
2023-01-18T14:14:57.536Z,3.35
2023-01-18T14:17:15.328Z,3.70
2023-01-18T14:19:20.219Z,3.70
2023-01-18T14:21:59.715Z,3.17
2023-01-18T14:24:17.428Z,3.13
2023-01-18T14:26:20.295Z,3.40
2023-01-18T14:28:48.367Z,3.15
2023-01-18T14:30:53.773Z,3.08
2023-01-18T14:33:02.626Z,3.08
2023-01-18T14:35:17.059Z,3.22
2023-01-18T14:37:36.143Z,4.00
2023-01-18T14:39:38.284Z,3.60
2023-01-18T14:41:43.586Z,3.28
2023-01-18T14:43:47.251Z,2.67
2023-01-18T14:46:19.659Z,2.53
2023-01-18T14:48:24.195Z,2.88
2023-01-18T14:50:30.285Z,2.72
2023-01-18T14:52:34.828Z,2.60
2023-01-18T14:54:37.045Z,2.75
2023-01-18T14:56:43.032Z,2.78
2023-01-18T14:59:18.550Z,3.38
2023-01-18T15:01:27.570Z,2.88
2023-01-18T15:03:30.744Z,2.65
2023-01-18T15:05:32.314Z,2.75
2023-01-18T15:07:34.422Z,2.42
2023-01-18T15:09:38.344Z,2.65
2023-01-18T15:11:43.138Z,2.90
2023-01-18T15:13:50.656Z,2.80
2023-01-18T15:15:54.372Z,3.60
2023-01-18T15:18:16.531Z,3.25
2023-01-18T15:20:18.431Z,3.55
2023-01-18T15:22:24.199Z,3.35
2023-01-18T15:24:26.236Z,3.05
2023-01-18T15:26:44.970Z,2.80
2023-01-18T15:28:49.466Z,2.58
2023-01-18T15:30:56.186Z,2.28
2023-01-18T15:33:02.313Z,2.40
2023-01-18T15:35:05.801Z,2.60
2023-01-18T15:37:31.044Z,2.97
2023-01-18T15:39:47.478Z,2.50
2023-01-18T15:41:51.439Z,2.30
2023-01-18T15:43:53.209Z,2.70
2023-01-18T15:45:57.346Z,3.08
2023-01-18T15:48:18.643Z,3.10
2023-01-18T15:50:30.946Z,3.03
2023-01-18T15:52:39.187Z,2.47
2023-01-18T15:54:41.964Z,2.95
2023-01-18T15:56:44.542Z,3.10
2023-01-18T15:58:53.357Z,2.85
2023-01-18T16:00:58.169Z,2.67
2023-01-18T16:03:00.270Z,3.40
2023-01-18T16:05:14.323Z,3.30
2023-01-18T16:07:36.409Z,3.15
2023-01-18T16:09:40.832Z,3.05
2023-01-18T16:11:58.277Z,3.30
2023-01-18T16:14:02.547Z,3.20
2023-01-18T16:16:23.253Z,2.70
2023-01-18T16:18:27.624Z,3.05
2023-01-18T16:20:32.525Z,3.05
2023-01-18T16:22:36.446Z,2.97
2023-01-18T16:24:52.332Z,3.50
2023-01-18T16:26:57.317Z,3.15
2023-01-18T16:29:14.438Z,3.30
2023-01-18T16:31:18.025Z,3.13
2023-01-18T16:33:23.864Z,2.92
2023-01-18T16:35:25.633Z,3.42
2023-01-18T16:37:28.247Z,2.85
2023-01-18T16:39:29.964Z,3.25
2023-01-18T16:41:32.329Z,3.15
2023-01-18T16:43:34.806Z,3.47
2023-01-18T16:45:38.420Z,3.50
2023-01-18T16:47:40.446Z,4.28
2023-01-18T16:49:44.096Z,4.85
2023-01-18T16:51:51.365Z,4.43
2023-01-18T16:53:55.639Z,4.78
2023-01-18T16:55:57.286Z,4.97
2023-01-18T16:58:02.223Z,3.90
2023-01-18T17:00:12.261Z,4.63
2023-01-18T17:02:14.247Z,4.18
2023-01-18T17:04:16.539Z,4.70
2023-01-18T17:06:20.494Z,4.53
2023-01-18T17:08:22.203Z,4.55
2023-01-18T17:10:41.859Z,4.32
2023-01-18T17:12:43.525Z,4.63
2023-01-18T17:14:45.213Z,5.05
2023-01-18T17:16:49.240Z,4.57
2023-01-18T17:18:51.261Z,5.20
2023-01-18T17:20:54.509Z,5.22
2023-01-18T17:22:56.336Z,4.78
2023-01-18T17:24:58.093Z,4.97
2023-01-18T17:27:01.223Z,5.03
2023-01-18T17:29:07.547Z,4.78
2023-01-18T17:31:09.144Z,4.75
2023-01-18T17:33:19.521Z,4.30
2023-01-18T17:35:23.244Z,4.43
2023-01-18T17:37:24.997Z,4.75
2023-01-18T17:39:43.670Z,4.88
2023-01-18T17:41:46.682Z,4.95
2023-01-18T17:43:49.312Z,5.63
2023-01-18T17:45:59.867Z,8.38
2023-01-18T17:48:03.390Z,8.15
2023-01-18T17:50:09.036Z,8.13
2023-01-18T17:52:11.887Z,6.45
2023-01-18T17:54:20.719Z,5.47
2023-01-18T17:56:25.980Z,5.28
2023-01-18T17:58:27.716Z,4.90
2023-01-18T18:00:29.439Z,4.72
2023-01-18T18:02:31.400Z,4.68
2023-01-18T18:04:33.193Z,4.32
2023-01-18T18:06:38.167Z,4.00
2023-01-18T18:08:42.373Z,4.30
2023-01-18T18:10:45.844Z,4.30
2023-01-18T18:12:50.358Z,4.05
2023-01-18T18:14:53.371Z,4.50
2023-01-18T18:16:55.331Z,4.43
2023-01-18T18:18:58.169Z,4.78
2023-01-18T18:21:02.369Z,4.80
2023-01-18T18:23:06.735Z,4.65
2023-01-18T18:25:08.760Z,4.60
2023-01-18T18:27:10.291Z,4.70
2023-01-18T18:29:12.693Z,4.38
2023-01-18T18:31:16.123Z,4.22
2023-01-18T18:33:19.324Z,4.07
2023-01-18T18:35:26.061Z,4.22
2023-01-18T18:37:29.376Z,4.25
2023-01-18T18:39:34.503Z,3.50
2023-01-18T18:41:36.000Z,4.40
2023-01-18T18:43:37.660Z,4.32
2023-01-18T18:45:39.577Z,4.97
2023-01-18T18:47:47.756Z,4.50
2023-01-18T18:49:49.459Z,4.85
2023-01-18T18:51:51.133Z,4.80
2023-01-18T18:53:52.766Z,4.65
2023-01-18T18:56:00.376Z,4.40
2023-01-18T18:58:02.467Z,4.80
2023-01-18T19:00:08.584Z,4.90
2023-01-18T19:02:15.181Z,5.07
2023-01-18T19:04:17.849Z,5.00
2023-01-18T19:06:21.295Z,5.20
2023-01-18T19:08:23.782Z,5.05
2023-01-18T19:10:27.825Z,5.50
2023-01-18T19:12:29.591Z,5.33
2023-01-18T19:14:31.509Z,5.70
2023-01-18T19:16:33.217Z,5.07
2023-01-18T19:18:35.386Z,4.93
2023-01-18T19:20:37.560Z,4.93
2023-01-18T19:22:39.169Z,5.53
2023-01-18T19:24:40.883Z,5.23
2023-01-18T19:26:42.540Z,5.60
2023-01-18T19:28:44.439Z,5.40
2023-01-18T19:30:46.016Z,5.10
2023-01-18T19:32:50.513Z,5.60
2023-01-18T19:34:52.255Z,6.00
2023-01-18T19:36:53.871Z,5.77
2023-01-18T19:38:59.959Z,5.73
2023-01-18T19:41:03.079Z,5.50
2023-01-18T19:43:04.509Z,5.60
2023-01-18T19:45:08.223Z,5.87
2023-01-18T19:47:11.412Z,5.57
2023-01-18T19:49:13.066Z,6.10
2023-01-18T19:51:23.166Z,6.00
2023-01-18T19:53:28.642Z,6.23
2023-01-18T19:55:30.660Z,6.00
2023-01-18T19:57:32.234Z,5.40
2023-01-18T19:59:34.226Z,5.00
2023-01-18T20:01:37.408Z,5.00
2023-01-18T20:03:39.846Z,5.03
2023-01-18T20:05:44.552Z,5.13
2023-01-18T20:07:48.447Z,4.93
2023-01-18T20:09:50.474Z,5.00
2023-01-18T20:11:52.298Z,4.73
2023-01-18T20:13:54.030Z,4.50
2023-01-18T20:15:55.889Z,4.93
2023-01-18T20:18:02.193Z,5.10
2023-01-18T20:20:04.913Z,5.27
2023-01-18T20:22:06.733Z,5.57
2023-01-18T20:24:09.364Z,5.73
2023-01-18T20:26:17.945Z,7.97
2023-01-18T20:28:23.654Z,8.13
2023-01-18T20:30:25.478Z,8.03
2023-01-18T20:32:27.205Z,6.37
2023-01-18T20:34:29.028Z,6.60
2023-01-18T20:36:30.893Z,6.67
2023-01-18T20:38:33.352Z,5.87
2023-01-18T20:40:36.270Z,5.73
2023-01-18T20:42:38.056Z,5.23
2023-01-18T20:44:40.534Z,5.50
2023-01-18T20:46:42.518Z,5.27
2023-01-18T20:48:44.129Z,5.03
2023-01-18T20:50:45.802Z,5.57
2023-01-18T20:52:47.598Z,5.93
2023-01-18T20:54:52.066Z,5.50
2023-01-18T20:56:53.672Z,5.80
2023-01-18T20:58:55.229Z,5.40
2023-01-18T21:00:59.429Z,6.30
2023-01-18T21:03:01.380Z,6.30
2023-01-18T21:05:03.451Z,6.20
2023-01-18T21:07:06.342Z,5.60
2023-01-18T21:09:08.501Z,5.90
2023-01-18T21:11:17.699Z,6.33
2023-01-18T21:13:19.281Z,5.53
2023-01-18T21:15:22.332Z,5.67
2023-01-18T21:17:24.097Z,5.93
2023-01-18T21:19:27.946Z,7.10
2023-01-18T21:21:32.218Z,6.73
2023-01-18T21:23:41.051Z,7.23
2023-01-18T21:25:49.873Z,6.90
2023-01-18T21:27:51.709Z,7.20
2023-01-18T21:29:54.227Z,8.10
2023-01-18T21:31:56.461Z,8.13
2023-01-18T21:33:58.164Z,8.87
2023-01-18T21:36:08.284Z,9.53
2023-01-18T21:38:10.067Z,9.20
2023-01-18T21:40:12.182Z,10.17
2023-01-18T21:42:33.135Z,10.33
2023-01-18T21:44:53.969Z,10.10
2023-01-18T21:46:56.546Z,9.80
2023-01-18T21:49:02.818Z,8.73
2023-01-18T21:51:24.201Z,7.83
2023-01-18T21:53:44.701Z,8.23
2023-01-18T21:55:52.293Z,7.70
2023-01-18T21:58:12.272Z,8.10
2023-01-18T22:00:14.581Z,7.77
2023-01-18T22:02:19.246Z,7.90
2023-01-18T22:04:39.574Z,7.10
2023-01-18T22:06:42.736Z,7.43
2023-01-18T22:08:44.318Z,7.43
2023-01-18T22:10:47.489Z,8.07
2023-01-18T22:12:49.332Z,7.40
2023-01-18T22:14:50.953Z,7.20
2023-01-18T22:16:53.306Z,6.37
2023-01-18T22:18:54.840Z,6.17
2023-01-18T22:20:56.542Z,6.50
2023-01-18T22:22:58.127Z,6.53
2023-01-18T22:25:02.073Z,6.40
2023-01-18T22:27:04.660Z,7.20
2023-01-18T22:29:09.717Z,6.77
2023-01-18T22:31:11.791Z,6.50
2023-01-18T22:33:15.314Z,8.07
2023-01-18T22:35:17.053Z,14.00
2023-01-18T22:37:21.845Z,17.23
2023-01-18T22:39:23.633Z,18.93
2023-01-18T22:41:28.016Z,15.83
2023-01-18T22:43:31.509Z,12.93
2023-01-18T22:45:33.098Z,11.20
2023-01-18T22:47:34.686Z,8.70
2023-01-18T22:49:36.340Z,8.30
2023-01-18T22:51:37.920Z,7.60
2023-01-18T22:53:43.965Z,7.27
2023-01-18T22:55:45.490Z,6.97
2023-01-18T22:57:46.990Z,7.33
2023-01-18T22:59:49.033Z,6.67
2023-01-18T23:01:50.850Z,7.13
2023-01-18T23:03:54.847Z,7.17
2023-01-18T23:06:00.560Z,6.93
2023-01-18T23:08:03.925Z,6.47
2023-01-18T23:10:08.331Z,7.37
2023-01-18T23:12:10.324Z,6.90
2023-01-18T23:14:31.188Z,7.30
2023-01-18T23:16:51.606Z,8.10
2023-01-18T23:18:55.778Z,8.40
2023-01-18T23:21:01.219Z,9.23
2023-01-18T23:23:03.761Z,9.20
2023-01-18T23:25:05.808Z,8.90
2023-01-18T23:27:11.861Z,9.73
2023-01-18T23:29:14.016Z,9.10
2023-01-18T23:31:18.645Z,8.87
2023-01-18T23:33:21.595Z,8.53
2023-01-18T23:35:23.091Z,9.50
2023-01-18T23:37:25.782Z,9.10
2023-01-18T23:39:45.706Z,9.70
2023-01-18T23:42:08.346Z,9.03
2023-01-18T23:44:31.850Z,9.33
2023-01-18T23:46:54.565Z,9.70
2023-01-18T23:49:17.778Z,9.03
2023-01-18T23:51:38.229Z,8.97
2023-01-18T23:53:58.980Z,9.07
2023-01-18T23:56:00.597Z,8.23
2023-01-18T23:58:02.692Z,8.53
